Time;durP1;ratioP1;P1;durP2;ratioP2;P2;SDS_P1;SDS_P2;PMS_P1;PMS_P2;Temp;Humidity;BMP_temperature;BMP_pressure;BME280_temperature;BME280_humidity;BME280_pressure;Samples;Min_cycle;Max_cycle;Signal;HPM_P1;HPM_P2
2022/03/16 00:01:11;;;;;;;;;4.75;4.50;;;;;;;;5093157;27;45460;-69
2022/03/16 00:03:36;;;;;;;;;3.00;3.00;;;;;;;;5094613;27;45371;-69
2022/03/16 00:06:02;;;;;;;;;2.00;2.00;;;;;;;;5092110;27;45416;-69
2022/03/16 00:08:28;;;;;;;;;3.50;3.50;;;;;;;;5091888;27;45372;-69
2022/03/16 00:10:54;;;;;;;;;2.00;2.00;;;;;;;;5091973;27;46474;-68
2022/03/16 00:13:19;;;;;;;;;3.25;3.00;;;;;;;;5091958;27;45361;-69
2022/03/16 00:15:44;;;;;;;;;3.00;3.00;;;;;;;;5095873;27;45391;-69
2022/03/16 00:18:12;;;;;;;;;2.50;2.50;;;;;;;;5091666;27;45738;-69
2022/03/16 00:20:37;;;;;;;;;3.75;2.75;;;;;;;;5091460;27;45561;-69
2022/03/16 00:23:02;;;;;;;;;2.00;2.00;;;;;;;;5092977;27;45205;-69
2022/03/16 00:25:28;;;;;;;;;4.00;2.75;;;;;;;;5093535;27;45516;-69
2022/03/16 00:27:53;;;;;;;;;2.25;2.25;;;;;;;;5096469;27;45576;-68
2022/03/16 00:30:18;;;;;;;;;2.00;2.00;;;;;;;;5096287;27;46409;-69
2022/03/16 00:32:43;;;;;;;;;3.50;3.50;;;;;;;;5094998;27;45223;-69
2022/03/16 00:35:08;;;;;;;;;2.50;2.50;;;;;;;;5095452;27;45214;-69
2022/03/16 00:37:34;;;;;;;;;2.00;2.00;;;;;;;;5095697;27;45263;-69
2022/03/16 00:39:59;;;;;;;;;2.00;2.00;;;;;;;;5097598;27;46027;-69
2022/03/16 00:42:24;;;;;;;;;2.00;2.00;;;;;;;;5096240;27;45452;-69
2022/03/16 00:44:50;;;;;;;;;1.50;1.50;;;;;;;;5095306;27;45290;-69
2022/03/16 00:47:15;;;;;;;;;2.75;2.00;;;;;;;;5094637;27;45207;-68
2022/03/16 00:49:40;;;;;;;;;3.25;2.00;;;;;;;;5094793;27;47111;-69
2022/03/16 00:52:05;;;;;;;;;3.00;3.00;;;;;;;;5097124;27;45236;-69
2022/03/16 00:54:31;;;;;;;;;2.00;2.00;;;;;;;;5096892;27;45434;-69
2022/03/16 00:56:56;;;;;;;;;2.00;2.00;;;;;;;;5095103;27;45501;-69
2022/03/16 00:59:21;;;;;;;;;3.00;3.00;;;;;;;;5094854;27;45621;-69
2022/03/16 01:01:46;;;;;;;;;2.75;2.75;;;;;;;;5095818;27;45225;-69
2022/03/16 01:04:11;;;;;;;;;2.00;2.00;;;;;;;;5096519;27;45294;-69
2022/03/16 01:06:37;;;;;;;;;2.00;2.00;;;;;;;;5098312;27;45499;-69
2022/03/16 01:09:02;;;;;;;;;3.00;1.25;;;;;;;;5079013;27;48227;-69
2022/03/16 01:11:27;;;;;;;;;3.00;3.00;;;;;;;;5094843;27;45690;-69
2022/03/16 01:13:52;;;;;;;;;4.00;2.00;;;;;;;;5094864;27;45849;-69
2022/03/16 01:16:18;;;;;;;;;1.25;1.25;;;;;;;;5094802;27;45483;-69
2022/03/16 01:18:43;;;;;;;;;3.00;1.75;;;;;;;;5097904;27;47146;-69
2022/03/16 01:21:08;;;;;;;;;3.00;2.00;;;;;;;;5094466;27;45417;-69
2022/03/16 01:23:34;;;;;;;;;3.00;3.00;;;;;;;;5094712;27;45360;-69
2022/03/16 01:25:59;;;;;;;;;4.00;3.25;;;;;;;;5094460;27;45455;-69
2022/03/16 01:28:25;;;;;;;;;1.00;1.00;;;;;;;;5076611;27;46688;-69
2022/03/16 01:30:50;;;;;;;;;1.50;1.50;;;;;;;;5097577;27;45420;-69
2022/03/16 01:33:15;;;;;;;;;2.00;2.00;;;;;;;;5094897;27;45523;-69
2022/03/16 01:35:40;;;;;;;;;2.25;2.25;;;;;;;;5094314;27;45643;-69
2022/03/16 01:38:05;;;;;;;;;1.25;1.25;;;;;;;;5094236;27;45445;-69
2022/03/16 01:40:31;;;;;;;;;2.25;1.75;;;;;;;;5094952;27;45545;-69
2022/03/16 01:42:56;;;;;;;;;2.75;2.50;;;;;;;;5096901;27;45768;-69
2022/03/16 01:45:21;;;;;;;;;1.50;1.25;;;;;;;;5096520;27;45479;-68
2022/03/16 01:47:46;;;;;;;;;2.00;2.00;;;;;;;;5094068;27;45562;-69
2022/03/16 01:50:12;;;;;;;;;2.50;2.50;;;;;;;;5094031;27;45417;-68
2022/03/16 01:52:38;;;;;;;;;1.00;1.00;;;;;;;;5094334;27;45356;-69
2022/03/16 01:55:05;;;;;;;;;2.25;2.00;;;;;;;;5096359;27;45366;-69
2022/03/16 01:57:33;;;;;;;;;3.00;2.75;;;;;;;;5095468;27;46385;-69
2022/03/16 01:59:58;;;;;;;;;2.00;2.00;;;;;;;;5093468;27;45443;-68
2022/03/16 02:02:23;;;;;;;;;2.00;1.75;;;;;;;;5094004;27;45309;-69
2022/03/16 02:04:48;;;;;;;;;2.00;2.00;;;;;;;;5094159;27;45446;-68
2022/03/16 02:07:13;;;;;;;;;2.25;2.25;;;;;;;;5094501;27;46436;-69
2022/03/16 02:09:39;;;;;;;;;3.00;2.00;;;;;;;;5096775;27;45389;-69
2022/03/16 02:12:04;;;;;;;;;2.25;1.50;;;;;;;;5096320;27;45586;-69
2022/03/16 02:14:30;;;;;;;;;1.75;1.75;;;;;;;;5093399;27;45430;-69
2022/03/16 02:16:56;;;;;;;;;3.25;1.25;;;;;;;;5093499;27;46292;-69
2022/03/16 02:19:22;;;;;;;;;3.50;2.75;;;;;;;;5094930;27;45574;-69
2022/03/16 02:21:51;;;;;;;;;2.00;2.00;;;;;;;;5097417;27;45360;-69
2022/03/16 02:24:16;;;;;;;;;2.00;2.00;;;;;;;;5094303;27;45523;-69
2022/03/16 02:26:42;;;;;;;;;2.00;2.00;;;;;;;;5093191;27;45263;-69
2022/03/16 02:29:07;;;;;;;;;2.00;2.00;;;;;;;;5093110;27;45752;-69
2022/03/16 02:31:32;;;;;;;;;3.00;3.00;;;;;;;;5093758;27;45449;-69
2022/03/16 02:33:57;;;;;;;;;2.00;2.00;;;;;;;;5095815;27;45331;-69
2022/03/16 02:36:22;;;;;;;;;1.75;1.75;;;;;;;;5094618;27;45890;-69
2022/03/16 02:38:48;;;;;;;;;1.50;1.50;;;;;;;;5093394;27;45491;-69
2022/03/16 02:41:13;;;;;;;;;2.00;2.00;;;;;;;;5093465;27;45431;-69
2022/03/16 02:43:39;;;;;;;;;4.00;3.00;;;;;;;;5093273;27;45499;-69
2022/03/16 02:46:04;;;;;;;;;4.00;2.25;;;;;;;;5095423;27;45558;-69
2022/03/16 02:48:30;;;;;;;;;1.00;1.00;;;;;;;;5094767;27;45480;-69
2022/03/16 02:50:55;;;;;;;;;3.00;3.00;;;;;;;;5092122;27;45398;-69
2022/03/16 02:53:20;;;;;;;;;2.25;2.25;;;;;;;;5093170;27;45389;-69
2022/03/16 02:55:46;;;;;;;;;2.25;2.25;;;;;;;;5092897;27;45428;-68
2022/03/16 02:58:12;;;;;;;;;2.75;2.75;;;;;;;;5094380;27;45369;-68
2022/03/16 03:00:37;;;;;;;;;2.00;2.00;;;;;;;;5096684;27;45661;-69
2022/03/16 03:03:03;;;;;;;;;2.00;2.00;;;;;;;;5077404;27;45427;-69
2022/03/16 03:05:28;;;;;;;;;1.00;1.00;;;;;;;;5092873;27;46304;-69
2022/03/16 03:07:53;;;;;;;;;0.75;0.75;;;;;;;;5092828;27;45887;-69
2022/03/16 03:10:18;;;;;;;;;2.75;2.00;;;;;;;;5092951;27;45222;-69
2022/03/16 03:12:43;;;;;;;;;2.25;1.25;;;;;;;;5096008;27;45387;-69
2022/03/16 03:15:11;;;;;;;;;2.25;2.25;;;;;;;;5092617;27;45437;-69
2022/03/16 03:17:37;;;;;;;;;2.50;2.50;;;;;;;;5092524;27;45481;-68
2022/03/16 03:20:02;;;;;;;;;1.00;1.00;;;;;;;;5092703;27;45436;-69
2022/03/16 03:22:28;;;;;;;;;2.50;1.25;;;;;;;;5092619;27;45381;-69
2022/03/16 03:24:53;;;;;;;;;2.00;2.00;;;;;;;;5095109;27;45540;-68
2022/03/16 03:27:19;;;;;;;;;1.50;1.50;;;;;;;;5093618;27;45276;-69
2022/03/16 03:29:44;;;;;;;;;2.00;2.00;;;;;;;;5092646;27;45303;-69
2022/03/16 03:32:09;;;;;;;;;2.00;2.00;;;;;;;;5077157;27;45493;-69
2022/03/16 03:34:34;;;;;;;;;2.00;1.00;;;;;;;;5075776;27;48235;-69
2022/03/16 03:36:59;;;;;;;;;2.00;2.00;;;;;;;;5094450;27;45404;-69
2022/03/16 03:39:25;;;;;;;;;3.50;3.50;;;;;;;;5077028;27;45250;-69
2022/03/16 03:41:50;;;;;;;;;3.00;3.00;;;;;;;;5093714;27;45311;-69
2022/03/16 03:44:15;;;;;;;;;1.00;1.00;;;;;;;;5074141;27;47225;-69
2022/03/16 03:46:40;;;;;;;;;3.00;1.50;;;;;;;;5092247;27;45422;-69
2022/03/16 03:49:05;;;;;;;;;2.00;2.00;;;;;;;;5094377;27;45329;-69
2022/03/16 03:51:31;;;;;;;;;2.00;2.00;;;;;;;;5075947;27;45346;-69
2022/03/16 03:53:56;;;;;;;;;2.00;2.00;;;;;;;;5091649;27;45287;-68
2022/03/16 03:56:21;;;;;;;;;1.50;1.25;;;;;;;;5092034;27;45570;-69
2022/03/16 03:58:47;;;;;;;;;1.00;1.00;;;;;;;;5092469;27;45537;-69
2022/03/16 04:01:12;;;;;;;;;1.75;1.75;;;;;;;;5093176;27;45326;-68
2022/03/16 04:03:37;;;;;;;;;1.75;1.75;;;;;;;;5094550;27;45263;-69
2022/03/16 04:06:02;;;;;;;;;1.50;1.50;;;;;;;;5092057;27;45620;-69
2022/03/16 04:08:28;;;;;;;;;1.50;1.50;;;;;;;;5091684;27;45248;-69
2022/03/16 04:10:53;;;;;;;;;2.00;2.00;;;;;;;;5092455;27;45408;-69
2022/03/16 04:13:18;;;;;;;;;4.00;3.00;;;;;;;;5092169;27;46470;-69
2022/03/16 04:15:43;;;;;;;;;2.00;2.00;;;;;;;;5095380;27;45421;-68
2022/03/16 04:18:08;;;;;;;;;2.75;2.75;;;;;;;;5093340;27;45467;-69
2022/03/16 04:20:33;;;;;;;;;2.75;2.75;;;;;;;;5093168;27;45397;-69
2022/03/16 04:22:59;;;;;;;;;2.00;1.50;;;;;;;;5091500;27;45299;-68
2022/03/16 04:25:24;;;;;;;;;4.00;2.50;;;;;;;;5092095;27;45335;-69
2022/03/16 04:27:49;;;;;;;;;2.25;2.25;;;;;;;;5095211;27;45217;-68
2022/03/16 04:30:14;;;;;;;;;2.00;2.00;;;;;;;;5092340;27;45294;-69
2022/03/16 04:32:40;;;;;;;;;1.75;1.75;;;;;;;;5091521;27;47093;-69
2022/03/16 04:35:05;;;;;;;;;3.00;3.00;;;;;;;;5091618;27;45674;-69
2022/03/16 04:37:30;;;;;;;;;3.25;2.00;;;;;;;;5091457;27;45554;-69
2022/03/16 04:39:56;;;;;;;;;4.00;1.00;;;;;;;;5094436;27;45503;-69
2022/03/16 04:42:21;;;;;;;;;2.25;2.25;;;;;;;;5092622;27;47202;-69
2022/03/16 04:44:46;;;;;;;;;1.25;1.25;;;;;;;;5091683;27;45413;-69
2022/03/16 04:47:11;;;;;;;;;2.50;1.75;;;;;;;;5091650;27;45512;-69
2022/03/16 04:49:37;;;;;;;;;1.75;1.75;;;;;;;;5091870;27;45443;-69
2022/03/16 04:52:02;;;;;;;;;3.50;3.50;;;;;;;;5093559;27;45456;-69
2022/03/16 04:54:28;;;;;;;;;1.50;1.50;;;;;;;;5092576;27;45391;-69
2022/03/16 04:56:54;;;;;;;;;2.00;2.00;;;;;;;;5092787;27;45393;-69
2022/03/16 04:59:19;;;;;;;;;1.75;1.50;;;;;;;;5092771;27;45384;-69
2022/03/16 05:01:44;;;;;;;;;4.00;3.00;;;;;;;;5091165;27;47466;-69
2022/03/16 05:04:09;;;;;;;;;2.75;2.75;;;;;;;;5092988;27;45365;-69
2022/03/16 05:06:35;;;;;;;;;2.50;2.50;;;;;;;;5093458;27;45302;-69
2022/03/16 05:09:00;;;;;;;;;3.00;3.00;;;;;;;;5091261;27;45457;-69
2022/03/16 05:11:25;;;;;;;;;2.50;2.00;;;;;;;;5091223;27;45544;-68
2022/03/16 05:13:50;;;;;;;;;1.75;1.75;;;;;;;;5091360;27;45350;-69
2022/03/16 05:16:16;;;;;;;;;3.00;3.00;;;;;;;;5077165;27;45320;-68
2022/03/16 05:18:44;;;;;;;;;2.75;2.75;;;;;;;;5098079;27;45620;-69
2022/03/16 05:21:09;;;;;;;;;2.00;2.00;;;;;;;;5093942;27;47418;-69
2022/03/16 05:23:35;;;;;;;;;1.75;1.75;;;;;;;;5094575;27;45395;-69
2022/03/16 05:26:00;;;;;;;;;2.50;2.50;;;;;;;;5094362;27;45374;-69
2022/03/16 05:28:25;;;;;;;;;4.00;2.00;;;;;;;;5094599;27;45466;-69
2022/03/16 05:30:51;;;;;;;;;2.00;2.00;;;;;;;;5079568;27;45578;-69
2022/03/16 05:33:16;;;;;;;;;1.00;1.00;;;;;;;;5094626;27;45321;-69
2022/03/16 05:35:41;;;;;;;;;2.00;2.00;;;;;;;;5093835;27;45422;-69
2022/03/16 05:38:08;;;;;;;;;2.75;2.75;;;;;;;;5095784;27;45462;-69
2022/03/16 05:40:33;;;;;;;;;3.00;2.75;;;;;;;;5096658;27;45306;-69
2022/03/16 05:42:58;;;;;;;;;1.25;1.25;;;;;;;;5096756;27;45339;-69
2022/03/16 05:45:23;;;;;;;;;2.00;2.00;;;;;;;;5095729;27;45426;-69
2022/03/16 05:47:49;;;;;;;;;2.00;2.00;;;;;;;;5094186;27;45554;-69
2022/03/16 05:50:14;;;;;;;;;1.75;1.75;;;;;;;;5093687;27;48257;-68
2022/03/16 05:52:41;;;;;;;;;4.00;1.00;;;;;;;;5078239;27;45389;-69
2022/03/16 05:55:07;;;;;;;;;2.00;2.00;;;;;;;;5096105;27;45563;-69
2022/03/16 05:57:33;;;;;;;;;2.75;2.75;;;;;;;;5095996;27;45476;-69
2022/03/16 05:59:58;;;;;;;;;2.00;1.25;;;;;;;;5093566;27;47130;-69
2022/03/16 06:02:23;;;;;;;;;2.75;2.00;;;;;;;;5093949;27;45564;-69
2022/03/16 06:04:48;;;;;;;;;2.00;2.00;;;;;;;;5093902;27;45229;-69
2022/03/16 06:07:13;;;;;;;;;3.75;3.00;;;;;;;;5094869;27;45614;-69
2022/03/16 06:09:40;;;;;;;;;2.00;2.00;;;;;;;;5096611;27;46437;-69
2022/03/16 06:12:05;;;;;;;;;3.25;3.00;;;;;;;;5093765;27;45483;-69
2022/03/16 06:14:31;;;;;;;;;2.50;2.50;;;;;;;;5078104;27;45513;-69
2022/03/16 06:16:56;;;;;;;;;3.50;3.25;;;;;;;;5093717;27;45558;-69
2022/03/16 06:19:22;;;;;;;;;2.00;2.00;;;;;;;;5093211;27;45336;-69
2022/03/16 06:21:47;;;;;;;;;3.00;3.00;;;;;;;;5097282;27;45339;-69
2022/03/16 06:24:13;;;;;;;;;3.00;3.00;;;;;;;;5078213;27;45607;-68
2022/03/16 06:26:39;;;;;;;;;3.00;2.00;;;;;;;;5093207;27;45504;-69
2022/03/16 06:29:04;;;;;;;;;3.50;3.00;;;;;;;;5093401;27;45518;-69
2022/03/16 06:31:30;;;;;;;;;2.50;2.50;;;;;;;;5093705;27;45512;-69
2022/03/16 06:33:55;;;;;;;;;2.00;2.00;;;;;;;;5095922;27;45393;-69
2022/03/16 06:36:20;;;;;;;;;1.50;1.50;;;;;;;;5094423;27;45386;-69
2022/03/16 06:38:45;;;;;;;;;2.75;2.75;;;;;;;;5093401;27;45565;-69
2022/03/16 06:41:11;;;;;;;;;3.00;3.00;;;;;;;;5093139;27;45579;-69
2022/03/16 06:43:36;;;;;;;;;2.25;2.25;;;;;;;;5093781;27;45497;-69
2022/03/16 06:46:01;;;;;;;;;3.00;3.00;;;;;;;;5095601;27;45303;-69
2022/03/16 06:48:27;;;;;;;;;2.00;2.00;;;;;;;;5094021;27;46253;-68
2022/03/16 06:50:52;;;;;;;;;2.00;2.00;;;;;;;;5092927;27;45348;-69
2022/03/16 06:53:18;;;;;;;;;2.00;2.00;;;;;;;;5094458;27;45369;-69
2022/03/16 06:55:43;;;;;;;;;1.50;1.50;;;;;;;;5094546;27;45302;-69
2022/03/16 06:58:08;;;;;;;;;4.00;2.75;;;;;;;;5094364;27;45359;-69
2022/03/16 07:00:34;;;;;;;;;1.75;1.75;;;;;;;;5095262;27;45373;-69
2022/03/16 07:03:02;;;;;;;;;2.50;2.25;;;;;;;;5092528;27;45350;-70
2022/03/16 07:05:28;;;;;;;;;1.00;1.00;;;;;;;;5093045;27;45466;-69
2022/03/16 07:07:57;;;;;;;;;2.75;1.25;;;;;;;;5092568;27;47354;-69
2022/03/16 07:10:23;;;;;;;;;2.75;1.25;;;;;;;;5092812;27;45329;-69
2022/03/16 07:12:48;;;;;;;;;2.75;2.75;;;;;;;;5096654;27;45415;-69
2022/03/16 07:15:13;;;;;;;;;2.50;2.00;;;;;;;;5092803;27;45478;-71
2022/03/16 07:17:38;;;;;;;;;2.00;2.00;;;;;;;;5092437;27;45848;-71
2022/03/16 07:20:06;;;;;;;;;3.50;2.00;;;;;;;;5092891;27;45246;-72
2022/03/16 07:22:31;;;;;;;;;2.50;2.00;;;;;;;;5092739;27;45796;-72
2022/03/16 07:24:56;;;;;;;;;2.00;2.00;;;;;;;;5095402;27;45460;-71
2022/03/16 07:27:22;;;;;;;;;2.00;1.75;;;;;;;;5093798;27;45429;-71
2022/03/16 07:29:47;;;;;;;;;0.75;0.75;;;;;;;;5094598;27;45312;-72
2022/03/16 07:32:12;;;;;;;;;4.50;3.50;;;;;;;;5093627;27;45355;-74
2022/03/16 07:34:38;;;;;;;;;2.50;2.50;;;;;;;;5075596;27;45538;-72
2022/03/16 07:37:03;;;;;;;;;1.75;1.75;;;;;;;;5093986;27;46087;-69
2022/03/16 07:39:28;;;;;;;;;1.50;1.50;;;;;;;;5093922;27;45410;-72
2022/03/16 07:41:53;;;;;;;;;3.00;3.00;;;;;;;;5094068;27;45715;-74
2022/03/16 07:44:19;;;;;;;;;3.00;2.00;;;;;;;;5090614;27;45455;-73
2022/03/16 07:46:44;;;;;;;;;1.00;1.00;;;;;;;;5076583;27;47346;-74
2022/03/16 07:49:09;;;;;;;;;2.50;2.00;;;;;;;;5090685;27;45399;-74
2022/03/16 07:51:34;;;;;;;;;3.75;2.00;;;;;;;;5070479;28;45433;-74
2022/03/16 07:54:00;;;;;;;;;3.00;2.00;;;;;;;;5048113;28;45395;-74
2022/03/16 07:56:25;;;;;;;;;1.00;1.00;;;;;;;;5067905;28;48183;-74
2022/03/16 07:58:51;;;;;;;;;3.25;3.25;;;;;;;;5073368;28;45573;-74
2022/03/16 08:01:16;;;;;;;;;3.00;3.00;;;;;;;;5072256;28;45453;-71
2022/03/16 08:03:41;;;;;;;;;3.50;3.25;;;;;;;;5073337;28;45365;-70
2022/03/16 08:06:06;;;;;;;;;3.25;2.75;;;;;;;;5071333;28;45397;-70
2022/03/16 08:08:32;;;;;;;;;4.50;3.00;;;;;;;;5072937;28;45530;-71
2022/03/16 08:10:58;;;;;;;;;5.00;3.25;;;;;;;;5071935;28;45415;-70
2022/03/16 08:13:24;;;;;;;;;2.25;2.25;;;;;;;;5058060;28;45317;-70
2022/03/16 08:15:49;;;;;;;;;2.00;2.00;;;;;;;;5074803;28;45335;-70
2022/03/16 08:18:14;;;;;;;;;2.50;2.50;;;;;;;;5071903;28;45549;-70
2022/03/16 08:20:39;;;;;;;;;2.50;2.50;;;;;;;;5072683;28;45336;-70
2022/03/16 08:23:04;;;;;;;;;3.00;3.00;;;;;;;;5073166;28;45324;-70
2022/03/16 08:25:30;;;;;;;;;4.25;3.00;;;;;;;;5073213;28;45430;-70
2022/03/16 08:27:55;;;;;;;;;5.00;3.50;;;;;;;;5074087;28;45299;-70
2022/03/16 08:30:20;;;;;;;;;2.00;2.00;;;;;;;;5072157;28;45795;-70
2022/03/16 08:32:45;;;;;;;;;1.50;1.50;;;;;;;;5071763;27;45395;-70
2022/03/16 08:35:11;;;;;;;;;2.75;2.25;;;;;;;;5072796;28;45510;-70
2022/03/16 08:37:37;;;;;;;;;2.25;2.25;;;;;;;;5073278;28;45436;-70
2022/03/16 08:40:03;;;;;;;;;4.00;3.00;;;;;;;;5072998;28;45357;-70
2022/03/16 08:42:29;;;;;;;;;4.00;2.25;;;;;;;;5072254;28;45468;-70
2022/03/16 08:44:54;;;;;;;;;3.25;3.00;;;;;;;;5070827;28;47258;-70
2022/03/16 08:47:21;;;;;;;;;2.00;2.00;;;;;;;;5071018;28;45535;-70
2022/03/16 08:49:46;;;;;;;;;3.00;3.00;;;;;;;;5072661;28;45448;-70
2022/03/16 08:52:12;;;;;;;;;3.25;2.25;;;;;;;;5061196;27;45574;-70
2022/03/16 08:54:38;;;;;;;;;2.25;2.25;;;;;;;;5078066;28;45389;-70
2022/03/16 08:57:04;;;;;;;;;2.00;2.00;;;;;;;;5078721;27;45286;-70
2022/03/16 08:59:29;;;;;;;;;2.50;2.50;;;;;;;;5075669;27;45527;-70
2022/03/16 09:01:55;;;;;;;;;2.00;2.00;;;;;;;;5075528;28;45412;-70
2022/03/16 09:04:21;;;;;;;;;4.00;4.00;;;;;;;;5074957;28;46594;-71
2022/03/16 09:06:48;;;;;;;;;3.00;3.00;;;;;;;;5078229;28;45355;-70
2022/03/16 09:09:13;;;;;;;;;2.75;2.75;;;;;;;;5074362;28;45457;-70
2022/03/16 09:11:39;;;;;;;;;3.75;3.25;;;;;;;;5075749;28;45420;-70
2022/03/16 09:14:05;;;;;;;;;2.00;2.00;;;;;;;;5075503;28;46113;-70
2022/03/16 09:16:30;;;;;;;;;2.50;2.50;;;;;;;;5074891;28;45497;-70
2022/03/16 09:18:55;;;;;;;;;3.25;3.25;;;;;;;;5076823;28;45385;-70
2022/03/16 09:21:21;;;;;;;;;4.00;3.00;;;;;;;;5074793;28;45494;-71
2022/03/16 09:23:47;;;;;;;;;4.75;3.00;;;;;;;;5057398;28;47161;-71
2022/03/16 09:26:12;;;;;;;;;3.75;3.75;;;;;;;;5075482;27;45481;-70
2022/03/16 09:28:37;;;;;;;;;4.50;3.75;;;;;;;;5073968;27;45383;-70
2022/03/16 09:31:02;;;;;;;;;2.00;2.00;;;;;;;;5076997;27;45684;-70
2022/03/16 09:33:30;;;;;;;;;2.00;2.00;;;;;;;;5074801;27;46350;-70
2022/03/16 09:35:56;;;;;;;;;2.25;2.25;;;;;;;;5075454;27;45497;-70
2022/03/16 09:38:21;;;;;;;;;3.00;2.25;;;;;;;;5075567;28;45316;-71
2022/03/16 09:40:50;;;;;;;;;2.00;2.00;;;;;;;;5077678;27;45581;-70
2022/03/16 09:43:18;;;;;;;;;3.25;3.25;;;;;;;;5074575;28;46317;-70
2022/03/16 09:46:06;;;;;;;;;2.50;1.25;;;;;;;;5059119;28;46081;-70
2022/03/16 09:48:32;;;;;;;;;4.00;3.00;;;;;;;;5075747;28;45419;-70
2022/03/16 09:50:58;;;;;;;;;2.50;2.50;;;;;;;;5070611;28;45559;-70
2022/03/16 09:53:23;;;;;;;;;5.75;4.00;;;;;;;;5075179;28;45683;-70
2022/03/16 09:55:52;;;;;;;;;2.00;2.00;;;;;;;;5075012;28;45426;-70
2022/03/16 09:58:20;;;;;;;;;2.50;2.50;;;;;;;;5072809;28;45349;-70
2022/03/16 10:00:45;;;;;;;;;5.25;3.00;;;;;;;;5076931;28;45622;-70
2022/03/16 10:03:10;;;;;;;;;3.25;3.00;;;;;;;;5074562;28;46164;-70
2022/03/16 10:05:36;;;;;;;;;3.75;3.00;;;;;;;;5073689;28;45443;-70
2022/03/16 10:08:08;;;;;;;;;3.00;3.00;;;;;;;;5075709;27;45379;-70
2022/03/16 10:13:21;;;;;;;;;3.25;3.25;;;;;;;;5073221;28;45778;-70
2022/03/16 10:15:47;;;;;;;;;4.00;4.00;;;;;;;;5072359;28;45466;-69
2022/03/16 10:18:14;;;;;;;;;3.00;3.00;;;;;;;;5073408;28;45738;-68
2022/03/16 10:20:40;;;;;;;;;2.50;2.50;;;;;;;;5074033;28;45462;-71
2022/03/16 10:23:06;;;;;;;;;2.00;2.00;;;;;;;;5057357;28;48195;-71
2022/03/16 10:25:33;;;;;;;;;4.75;3.75;;;;;;;;5072510;27;45581;-70
2022/03/16 10:28:10;;;;;;;;;4.00;4.00;;;;;;;;5075655;28;45274;-70
2022/03/16 10:30:35;;;;;;;;;3.50;3.50;;;;;;;;5075315;28;45410;-70
2022/03/16 10:33:00;;;;;;;;;2.00;2.00;;;;;;;;5072117;28;46392;-70
2022/03/16 10:35:25;;;;;;;;;4.50;3.50;;;;;;;;5074220;27;45461;-69
2022/03/16 10:37:51;;;;;;;;;6.25;4.75;;;;;;;;5075321;27;45428;-70
2022/03/16 10:40:20;;;;;;;;;3.25;3.25;;;;;;;;5070912;28;45271;-70
2022/03/16 10:48:22;;;;;;;;;6.25;3.50;;;;;;;;5074741;28;45332;-70
2022/03/16 10:50:49;;;;;;;;;2.75;2.00;;;;;;;;5056458;28;46307;-70
2022/03/16 10:53:16;;;;;;;;;5.50;3.00;;;;;;;;5053699;28;45468;-70
2022/03/16 10:55:42;;;;;;;;;3.75;3.75;;;;;;;;5052545;28;45381;-70
2022/03/16 10:58:08;;;;;;;;;2.00;2.00;;;;;;;;5053956;28;45496;-70
2022/03/16 11:00:37;;;;;;;;;2.00;2.00;;;;;;;;5038267;28;45456;-70
2022/03/16 11:03:06;;;;;;;;;4.75;4.00;;;;;;;;5053156;28;45566;-70
2022/03/16 11:05:36;;;;;;;;;2.75;2.75;;;;;;;;5053605;28;45490;-70
2022/03/16 11:08:04;;;;;;;;;3.75;3.25;;;;;;;;5053528;28;45528;-69
2022/03/16 11:10:29;;;;;;;;;5.00;4.00;;;;;;;;5054661;28;45299;-70
2022/03/16 11:15:40;;;;;;;;;3.75;3.75;;;;;;;;5055626;28;45364;-70
2022/03/16 11:18:05;;;;;;;;;3.00;3.00;;;;;;;;5052399;28;50030;-70
2022/03/16 11:20:32;;;;;;;;;6.00;4.25;;;;;;;;5051533;28;45458;-70
2022/03/16 11:25:51;;;;;;;;;3.50;3.00;;;;;;;;5054429;28;45405;-70
2022/03/16 11:28:19;;;;;;;;;4.50;4.25;;;;;;;;5052914;28;45396;-70
2022/03/16 11:30:44;;;;;;;;;2.50;2.00;;;;;;;;5055517;28;45230;-70
2022/03/16 11:33:12;;;;;;;;;4.00;4.00;;;;;;;;5052656;28;45719;-70
2022/03/16 11:35:53;;;;;;;;;3.00;2.00;;;;;;;;5052238;28;45516;-70
2022/03/16 11:38:21;;;;;;;;;5.25;2.00;;;;;;;;5053172;28;45467;-70
2022/03/16 11:40:50;;;;;;;;;2.50;2.50;;;;;;;;5052011;28;45483;-70
2022/03/16 11:43:22;;;;;;;;;2.00;2.00;;;;;;;;5052892;28;47320;-71
2022/03/16 11:46:00;;;;;;;;;4.00;2.75;;;;;;;;5050365;28;45467;-69
2022/03/16 11:48:31;;;;;;;;;3.50;2.00;;;;;;;;5054619;28;45347;-71
2022/03/16 11:51:08;;;;;;;;;3.75;3.75;;;;;;;;5066680;28;45559;-70
2022/03/16 11:53:45;;;;;;;;;3.00;3.00;;;;;;;;5073008;28;45426;-70
2022/03/16 11:56:23;;;;;;;;;3.00;3.00;;;;;;;;5073056;28;45378;-72
2022/03/16 11:59:02;;;;;;;;;2.75;2.75;;;;;;;;5073655;27;45550;-73
2022/03/16 12:01:32;;;;;;;;;3.00;3.00;;;;;;;;5058556;28;45579;-72
2022/03/16 12:03:58;;;;;;;;;5.25;4.00;;;;;;;;5074477;28;47379;-72
2022/03/16 12:06:30;;;;;;;;;2.75;2.75;;;;;;;;5073838;28;45379;-73
2022/03/16 12:09:02;;;;;;;;;2.75;2.75;;;;;;;;5071647;28;45700;-73
2022/03/16 12:14:36;;;;;;;;;2.00;2.00;;;;;;;;5011777;28;45998;-72
2022/03/16 12:17:21;;;;;;;;;6.75;4.50;;;;;;;;5011298;28;45491;-72
2022/03/16 12:20:06;;;;;;;;;2.75;2.75;;;;;;;;5011636;28;45411;-72
2022/03/16 12:22:36;;;;;;;;;3.25;3.25;;;;;;;;4998969;28;45582;-73
2022/03/16 12:25:33;;;;;;;;;2.50;2.50;;;;;;;;5014815;28;46746;-71
2022/03/16 12:30:59;;;;;;;;;10.75;9.00;;;;;;;;4933248;28;45486;-72
2022/03/16 12:33:28;;;;;;;;;5.00;5.00;;;;;;;;4922556;28;45591;-71
2022/03/16 12:35:53;;;;;;;;;6.75;5.50;;;;;;;;4920737;28;46173;-71
2022/03/16 12:38:20;;;;;;;;;4.50;4.50;;;;;;;;4922355;28;45338;-71
2022/03/16 12:43:30;;;;;;;;;5.75;5.75;;;;;;;;4918808;28;45292;-71
2022/03/16 12:46:14;;;;;;;;;7.00;5.50;;;;;;;;4920465;28;46217;-72
2022/03/16 12:48:40;;;;;;;;;5.00;5.00;;;;;;;;4922810;28;45357;-71
2022/03/16 12:51:05;;;;;;;;;5.00;3.75;;;;;;;;4934784;28;45612;-72
2022/03/16 12:53:39;;;;;;;;;5.25;5.00;;;;;;;;4977597;28;45493;-71
2022/03/16 12:56:08;;;;;;;;;7.25;7.00;;;;;;;;4974960;28;46532;-71
2022/03/16 12:58:34;;;;;;;;;5.00;5.00;;;;;;;;4990422;28;45402;-72
2022/03/16 13:00:59;;;;;;;;;6.75;4.00;;;;;;;;4978170;28;45366;-72
2022/03/16 13:03:24;;;;;;;;;7.00;5.75;;;;;;;;5020746;28;45398;-72
2022/03/16 13:05:52;;;;;;;;;4.00;4.00;;;;;;;;5058658;28;48485;-69
2022/03/16 13:08:17;;;;;;;;;4.00;4.00;;;;;;;;5075816;28;45473;-70
2022/03/16 13:13:27;;;;;;;;;4.50;4.50;;;;;;;;5070584;28;45385;-71
2022/03/16 13:15:52;;;;;;;;;4.00;4.00;;;;;;;;5076588;28;45456;-70
2022/03/16 13:18:28;;;;;;;;;5.00;4.00;;;;;;;;5055798;28;45490;-70
2022/03/16 13:20:54;;;;;;;;;3.25;3.25;;;;;;;;5075383;28;45487;-71
2022/03/16 13:23:28;;;;;;;;;5.25;4.00;;;;;;;;5074102;27;45354;-71
2022/03/16 13:26:05;;;;;;;;;4.00;4.00;;;;;;;;5063658;28;46465;-70
2022/03/16 13:28:31;;;;;;;;;3.00;3.00;;;;;;;;5063210;28;45387;-70
2022/03/16 13:30:56;;;;;;;;;4.00;4.00;;;;;;;;5076939;27;45470;-70
2022/03/16 13:33:24;;;;;;;;;5.00;5.00;;;;;;;;5076389;28;45572;-70
2022/03/16 13:35:49;;;;;;;;;3.75;3.75;;;;;;;;5074029;28;46197;-71
2022/03/16 13:38:28;;;;;;;;;6.75;5.00;;;;;;;;5074268;28;45312;-70
2022/03/16 13:40:53;;;;;;;;;6.00;4.75;;;;;;;;5075794;28;45642;-70
2022/03/16 13:43:20;;;;;;;;;8.50;6.00;;;;;;;;5074596;28;45416;-70
2022/03/16 13:45:52;;;;;;;;;5.00;4.75;;;;;;;;5077042;28;47350;-70
2022/03/16 13:48:18;;;;;;;;;5.75;5.00;;;;;;;;5074075;28;45482;-71
2022/03/16 13:50:49;;;;;;;;;5.00;5.00;;;;;;;;5073754;28;45500;-70
2022/03/16 13:53:14;;;;;;;;;5.00;4.00;;;;;;;;5073834;27;45316;-70
2022/03/16 13:55:39;;;;;;;;;5.00;4.00;;;;;;;;5074675;28;46818;-70
2022/03/16 13:58:09;;;;;;;;;5.50;5.00;;;;;;;;5069798;27;45256;-71
2022/03/16 14:00:42;;;;;;;;;6.50;4.25;;;;;;;;5075527;28;45371;-70
2022/03/16 14:03:10;;;;;;;;;5.75;5.50;;;;;;;;5073660;28;45658;-70
2022/03/16 14:05:35;;;;;;;;;4.50;4.50;;;;;;;;5073377;28;45375;-70
2022/03/16 14:08:05;;;;;;;;;5.50;5.25;;;;;;;;5073530;28;45507;-70
2022/03/16 14:10:32;;;;;;;;;6.25;5.50;;;;;;;;5072404;28;45370;-70
2022/03/16 14:13:04;;;;;;;;;6.25;6.25;;;;;;;;5075708;28;45528;-70
2022/03/16 14:15:30;;;;;;;;;5.00;5.00;;;;;;;;5058069;28;47036;-70
2022/03/16 14:18:06;;;;;;;;;5.00;5.00;;;;;;;;5072825;28;45626;-70
2022/03/16 14:20:32;;;;;;;;;6.75;5.25;;;;;;;;5073602;28;45449;-70
2022/03/16 14:22:58;;;;;;;;;5.50;5.00;;;;;;;;5073747;28;45442;-70
2022/03/16 14:25:26;;;;;;;;;6.75;6.75;;;;;;;;5074174;28;45528;-71
2022/03/16 14:27:53;;;;;;;;;6.00;6.00;;;;;;;;5076765;28;45529;-70
2022/03/16 14:30:18;;;;;;;;;7.25;5.25;;;;;;;;5073608;28;45350;-70
2022/03/16 14:32:47;;;;;;;;;5.25;4.75;;;;;;;;5072873;28;45218;-70
2022/03/16 14:35:12;;;;;;;;;6.50;3.00;;;;;;;;5073653;28;46988;-71
2022/03/16 14:37:38;;;;;;;;;7.00;5.25;;;;;;;;5074889;28;45408;-70
2022/03/16 14:40:03;;;;;;;;;7.25;5.75;;;;;;;;5075383;28;45313;-70
2022/03/16 14:42:29;;;;;;;;;7.25;5.50;;;;;;;;5074137;28;45577;-70
2022/03/16 14:44:54;;;;;;;;;6.00;4.75;;;;;;;;5074963;28;46470;-71
2022/03/16 14:47:19;;;;;;;;;6.25;5.50;;;;;;;;5077602;27;45355;-70
2022/03/16 14:49:44;;;;;;;;;5.00;5.00;;;;;;;;5074361;28;45386;-70
2022/03/16 14:52:09;;;;;;;;;6.25;4.75;;;;;;;;5074347;28;45264;-71
2022/03/16 14:54:35;;;;;;;;;8.25;6.00;;;;;;;;5076240;27;45502;-70
2022/03/16 14:57:00;;;;;;;;;7.00;5.25;;;;;;;;5074196;27;45437;-70
2022/03/16 14:59:26;;;;;;;;;5.75;4.50;;;;;;;;5074727;28;45362;-70
2022/03/16 15:01:51;;;;;;;;;7.00;5.75;;;;;;;;5073816;27;50326;-70
2022/03/16 15:04:16;;;;;;;;;5.25;5.25;;;;;;;;5074227;27;46543;-70